PWSweather.com
Personal Weather Stations
Station Observations
KNYSYRAC2
Fairmount Hills, Fairmount, NY 13219

Fairmount HillsFairmount, NY 13219

Lat: 43.03602, Lon: -76.247151

Elevation: 663

Station Type: Ambient Weather WS-2080

http://weather.cerchia.com

High Low Average
Temperature 87.7°F30.9°F 67.4°F19.7°F 75.8°F24.3°F
Dew Point 69.3°F20.7°F 65.0°F18.3°F 67.2°F19.6°F
Winds 5.2 mph S8.4 mph S Calm Calm 2.3 mph 3.7 mph
Wind Gusts 7.6 mph12.2 mph -- 3.9 mph6.3 mph
Humidity 94% 48% 76%
Pressure 30.03 in1016.90 in 29.88 in1011.90 in -
Precipitation 0.00 in0.00 in - -
Hour Temp Dew Point Humidity Winds Wind Gusts Pressure Precip Precip Rate Daily Precip Total
12:00 AM 70.1°F21.2°C 66.4°F19.1°C 88% 2.9 mph SSE4.7 kmh SSE 5.4 mph8.7 kmh 29.98 in1015.2 mb 0.00 in0.0 mm 0.00 in/hr0.0 mm/hr 0.00 in0.0 mm
12:15 AM 70.1°F21.2°C 66.4°F19.1°C 88% 2.6 mph S4.2 kmh S 3.1 mph5.0 kmh 29.98 in1015.2 mb 0.00 in0.0 mm 0.00 in/hr0.0 mm/hr 0.00 in0.0 mm
12:30 AM 70.2°F21.2°C 66.6°F19.2°C 88% 3.0 mph SSE4.8 kmh SSE 4.5 mph7.2 kmh 29.98 in1015.2 mb 0.00 in0.0 mm 0.00 in/hr0.0 mm/hr 0.00 in0.0 mm
12:45 AM 70.2°F21.2°C 66.6°F19.2°C 88% 2.8 mph SE4.5 kmh SE 6.9 mph11.1 kmh 29.99 in1015.6 mb 0.00 in0.0 mm 0.00 in/hr0.0 mm/hr 0.00 in0.0 mm
01:00 AM 70.1°F21.2°C 66.4°F19.1°C 88% 2.6 mph SSE4.2 kmh SSE 5.4 mph8.7 kmh 29.98 in1015.2 mb 0.00 in0.0 mm 0.00 in/hr0.0 mm/hr 0.00 in0.0 mm
01:15 AM 69.9°F21.1°C 66.2°F19.0°C 88% 2.6 mph SSE4.2 kmh SSE 6.9 mph11.1 kmh 29.98 in1015.2 mb 0.00 in0.0 mm 0.00 in/hr0.0 mm/hr 0.00 in0.0 mm
01:30 AM 69.9°F21.1°C 66.5°F19.2°C 89% 2.1 mph SE3.4 kmh SE 3.1 mph5.0 kmh 29.98 in1015.2 mb 0.00 in0.0 mm 0.00 in/hr0.0 mm/hr 0.00 in0.0 mm
01:45 AM 69.9°F21.1°C 66.5°F19.2°C 89% 2.3 mph SE3.7 kmh SE 3.1 mph5.0 kmh 29.98 in1015.2 mb 0.00 in0.0 mm 0.00 in/hr0.0 mm/hr 0.00 in0.0 mm
02:00 AM 69.7°F20.9°C 66.3°F19.1°C 89% 2.6 mph SSE4.2 kmh SSE 3.1 mph5.0 kmh 29.98 in1015.2 mb 0.00 in0.0 mm 0.00 in/hr0.0 mm/hr 0.00 in0.0 mm
02:15 AM 69.7°F20.9°C 66.3°F19.1°C 89% 3.1 mph SSE5.0 kmh SSE 3.8 mph6.1 kmh 29.99 in1015.6 mb 0.00 in0.0 mm 0.00 in/hr0.0 mm/hr 0.00 in0.0 mm
02:30 AM 69.7°F20.9°C 66.3°F19.1°C 89% 2.6 mph SSE4.2 kmh SSE 3.1 mph5.0 kmh 29.99 in1015.6 mb 0.00 in0.0 mm 0.00 in/hr0.0 mm/hr 0.00 in0.0 mm
02:45 AM 69.7°F20.9°C 66.3°F19.1°C 89% 3.3 mph SE5.3 kmh SE 5.4 mph8.7 kmh 29.98 in1015.2 mb 0.00 in0.0 mm 0.00 in/hr0.0 mm/hr 0.00 in0.0 mm
03:00 AM 69.7°F20.9°C 66.3°F19.1°C 89% 2.8 mph SSE4.5 kmh SSE 3.1 mph5.0 kmh 29.99 in1015.6 mb 0.00 in0.0 mm 0.00 in/hr0.0 mm/hr 0.00 in0.0 mm
03:15 AM 69.7°F20.9°C 66.3°F19.1°C 89% 3.6 mph S5.8 kmh S 7.6 mph12.2 kmh 29.99 in1015.6 mb 0.00 in0.0 mm 0.00 in/hr0.0 mm/hr 0.00 in0.0 mm
03:30 AM 69.7°F20.9°C 66.3°F19.1°C 89% 2.7 mph SE4.3 kmh SE 5.4 mph8.7 kmh 29.99 in1015.6 mb 0.00 in0.0 mm 0.00 in/hr0.0 mm/hr 0.00 in0.0 mm
03:45 AM 69.3°F20.7°C 66.0°F18.9°C 89% 2.2 mph SE3.5 kmh SE 3.8 mph6.1 kmh 29.99 in1015.6 mb 0.00 in0.0 mm 0.00 in/hr0.0 mm/hr 0.00 in0.0 mm
04:00 AM 69.0°F20.6°C 66.0°F18.9°C 90% 2.4 mph SSE3.9 kmh SSE 3.1 mph5.0 kmh 29.99 in1015.6 mb 0.00 in0.0 mm 0.00 in/hr0.0 mm/hr 0.00 in0.0 mm
04:15 AM 68.8°F20.4°C 65.8°F18.8°C 90% 2.8 mph SE4.5 kmh SE 4.5 mph7.2 kmh 29.99 in1015.6 mb 0.00 in0.0 mm 0.00 in/hr0.0 mm/hr 0.00 in0.0 mm
04:30 AM 68.8°F20.4°C 65.8°F18.8°C 90% 3.5 mph S5.6 kmh S 6.0 mph9.7 kmh 30.00 in1015.9 mb 0.00 in0.0 mm 0.00 in/hr0.0 mm/hr 0.00 in0.0 mm
04:45 AM 69.0°F20.6°C 66.0°F18.9°C 90% 3.0 mph SSE4.8 kmh SSE 4.5 mph7.2 kmh 30.00 in1015.9 mb 0.00 in0.0 mm 0.00 in/hr0.0 mm/hr 0.00 in0.0 mm
05:00 AM 69.3°F20.7°C 66.3°F19.1°C 90% 3.1 mph SSW5.0 kmh SSW 5.4 mph8.7 kmh 30.00 in1015.9 mb 0.00 in0.0 mm 0.00 in/hr0.0 mm/hr 0.00 in0.0 mm
05:15 AM 69.0°F20.6°C 66.0°F18.9°C 90% 1.7 mph SE2.7 kmh SE 4.5 mph7.2 kmh 30.00 in1015.9 mb 0.00 in0.0 mm 0.00 in/hr0.0 mm/hr 0.00 in0.0 mm
05:30 AM 68.1°F20.1°C 65.4°F18.6°C 91% 1.7 mph SE2.7 kmh SE 3.1 mph5.0 kmh 30.00 in1015.9 mb 0.00 in0.0 mm 0.00 in/hr0.0 mm/hr 0.00 in0.0 mm
05:45 AM 67.5°F19.7°C 65.2°F18.4°C 92% 1.0 mph ESE1.6 kmh ESE 1.6 mph2.6 kmh 30.01 in1016.3 mb 0.00 in0.0 mm 0.00 in/hr0.0 mm/hr 0.00 in0.0 mm
06:00 AM 67.7°F19.8°C 65.7°F18.7°C 93% 1.8 mph S2.9 kmh S 3.8 mph6.1 kmh 30.01 in1016.3 mb 0.00 in0.0 mm 0.00 in/hr0.0 mm/hr 0.00 in0.0 mm
06:15 AM 67.9°F19.9°C 65.8°F18.8°C 93% 1.2 mph SE1.9 kmh SE 3.1 mph5.0 kmh 30.01 in1016.3 mb 0.00 in0.0 mm 0.00 in/hr0.0 mm/hr 0.00 in0.0 mm
06:30 AM 67.5°F19.7°C 65.5°F18.6°C 93% 0.6 mph SE1.0 kmh SE 1.6 mph2.6 kmh 30.02 in1016.6 mb 0.00 in0.0 mm 0.00 in/hr0.0 mm/hr 0.00 in0.0 mm
06:45 AM 67.4°F19.7°C 65.6°F18.7°C 94% 1.6 mph SE2.6 kmh SE 1.6 mph2.6 kmh 30.02 in1016.6 mb 0.00 in0.0 mm 0.00 in/hr0.0 mm/hr 0.00 in0.0 mm
07:00 AM 67.9°F19.9°C 66.1°F18.9°C 94% 1.6 mph SSE2.6 kmh SSE 2.2 mph3.5 kmh 30.03 in1016.9 mb 0.00 in0.0 mm 0.00 in/hr0.0 mm/hr 0.00 in0.0 mm
07:15 AM 68.1°F20.1°C 66.3°F19.1°C 94% 0.7 mph SE1.1 kmh SE 1.6 mph2.6 kmh 30.02 in1016.6 mb 0.00 in0.0 mm 0.00 in/hr0.0 mm/hr 0.00 in0.0 mm
07:30 AM 68.3°F20.2°C 66.5°F19.2°C 94% 0.9 mph SE1.4 kmh SE 1.6 mph2.6 kmh 30.02 in1016.6 mb 0.00 in0.0 mm 0.00 in/hr0.0 mm/hr 0.00 in0.0 mm
07:45 AM 69.3°F20.7°C 67.3°F19.6°C 93% 0.6 mph S1.0 kmh S 1.6 mph2.6 kmh 30.02 in1016.6 mb 0.00 in0.0 mm 0.00 in/hr0.0 mm/hr 0.00 in0.0 mm
08:00 AM 70.1°F21.2°C 68.0°F20.0°C 93% 0.4 mph SE0.6 kmh SE 1.6 mph2.6 kmh 30.01 in1016.3 mb 0.00 in0.0 mm 0.00 in/hr0.0 mm/hr 0.00 in0.0 mm
08:15 AM 71.0°F21.7°C 67.9°F19.9°C 90% 1.5 mph SE2.4 kmh SE 2.2 mph3.5 kmh 30.01 in1016.3 mb 0.00 in0.0 mm 0.00 in/hr0.0 mm/hr 0.00 in0.0 mm
08:30 AM 71.3°F21.8°C 67.9°F19.9°C 89% 0.9 mph SE1.4 kmh SE 1.6 mph2.6 kmh 30.01 in1016.3 mb 0.00 in0.0 mm 0.00 in/hr0.0 mm/hr 0.00 in0.0 mm
08:45 AM 71.5°F21.9°C 67.8°F19.9°C 88% 1.9 mph SE3.1 kmh SE 2.2 mph3.5 kmh 30.00 in1015.9 mb 0.00 in0.0 mm 0.00 in/hr0.0 mm/hr 0.00 in0.0 mm
09:00 AM 72.2°F22.3°C 68.5°F20.3°C 88% 1.0 mph S1.6 kmh S 2.2 mph3.5 kmh 30.00 in1015.9 mb 0.00 in0.0 mm 0.00 in/hr0.0 mm/hr 0.00 in0.0 mm
09:15 AM 72.9°F22.7°C 68.9°F20.5°C 87% 1.6 mph WSW2.6 kmh WSW 3.1 mph5.0 kmh 30.00 in1015.9 mb 0.00 in0.0 mm 0.00 in/hr0.0 mm/hr 0.00 in0.0 mm
09:30 AM 73.3°F22.9°C 68.6°F20.3°C 85% 1.0 mph SW1.6 kmh SW 2.2 mph3.5 kmh 30.00 in1015.9 mb 0.00 in0.0 mm 0.00 in/hr0.0 mm/hr 0.00 in0.0 mm
09:45 AM 73.5°F23.1°C 68.7°F20.4°C 85% 1.0 mph NW1.6 kmh NW 2.2 mph3.5 kmh 30.00 in1015.9 mb 0.00 in0.0 mm 0.00 in/hr0.0 mm/hr 0.00 in0.0 mm
10:00 AM 74.6°F23.7°C 69.1°F20.6°C 83% 1.0 mph WSW1.6 kmh WSW 3.8 mph6.1 kmh 30.00 in1015.9 mb 0.00 in0.0 mm 0.00 in/hr0.0 mm/hr 0.00 in0.0 mm
10:15 AM 75.1°F23.9°C 69.3°F20.7°C 82% 2.4 mph NNW3.9 kmh NNW 3.1 mph5.0 kmh 30.00 in1015.9 mb 0.00 in0.0 mm 0.00 in/hr0.0 mm/hr 0.00 in0.0 mm
10:30 AM 74.7°F23.7°C 68.9°F20.5°C 82% 1.2 mph WNW1.9 kmh WNW 2.2 mph3.5 kmh 30.01 in1016.3 mb 0.00 in0.0 mm 0.00 in/hr0.0 mm/hr 0.00 in0.0 mm
10:45 AM 74.9°F23.8°C 69.1°F20.6°C 82% 1.4 mph WSW2.3 kmh WSW 2.2 mph3.5 kmh 30.00 in1015.9 mb 0.00 in0.0 mm 0.00 in/hr0.0 mm/hr 0.00 in0.0 mm
11:00 AM 75.3°F24.1°C 69.1°F20.6°C 81% 3.3 mph W5.3 kmh W 4.5 mph7.2 kmh 30.00 in1015.9 mb 0.00 in0.0 mm 0.00 in/hr0.0 mm/hr 0.00 in0.0 mm
11:15 AM 75.8°F24.3°C 69.3°F20.7°C 80% 1.5 mph WNW2.4 kmh WNW 2.2 mph3.5 kmh 30.00 in1015.9 mb 0.00 in0.0 mm 0.00 in/hr0.0 mm/hr 0.00 in0.0 mm
11:30 AM 76.5°F24.7°C 68.5°F20.3°C 76% 1.5 mph SW2.4 kmh SW 3.1 mph5.0 kmh 30.00 in1015.9 mb 0.00 in0.0 mm 0.00 in/hr0.0 mm/hr 0.00 in0.0 mm
11:45 AM 78.3°F25.7°C 68.2°F20.1°C 71% 2.8 mph S4.5 kmh S 3.8 mph6.1 kmh 29.99 in1015.6 mb 0.00 in0.0 mm 0.00 in/hr0.0 mm/hr 0.00 in0.0 mm
12:00 PM 78.9°F26.1°C 68.3°F20.2°C 70% 3.3 mph WSW5.3 kmh WSW 6.0 mph9.7 kmh 29.98 in1015.2 mb 0.00 in0.0 mm 0.00 in/hr0.0 mm/hr 0.00 in0.0 mm
12:15 PM 78.9°F26.1°C 67.5°F19.7°C 68% 2.4 mph SSE3.9 kmh SSE 5.4 mph8.7 kmh 29.98 in1015.2 mb 0.00 in0.0 mm 0.00 in/hr0.0 mm/hr 0.00 in0.0 mm
12:30 PM 78.9°F26.1°C 67.0°F19.4°C 67% 3.7 mph WSW6.0 kmh WSW 4.5 mph7.2 kmh 29.98 in1015.2 mb 0.00 in0.0 mm 0.00 in/hr0.0 mm/hr 0.00 in0.0 mm
12:45 PM 79.2°F26.2°C 67.4°F19.7°C 67% 3.0 mph SW4.8 kmh SW 4.5 mph7.2 kmh 29.98 in1015.2 mb 0.00 in0.0 mm 0.00 in/hr0.0 mm/hr 0.00 in0.0 mm
01:00 PM 79.2°F26.2°C 66.9°F19.4°C 66% 4.0 mph WSW6.4 kmh WSW 5.4 mph8.7 kmh 29.98 in1015.2 mb 0.00 in0.0 mm 0.00 in/hr0.0 mm/hr 0.00 in0.0 mm
01:15 PM 79.8°F26.6°C 66.6°F19.2°C 64% 3.5 mph SW5.6 kmh SW 6.0 mph9.7 kmh 29.97 in1014.9 mb 0.00 in0.0 mm 0.00 in/hr0.0 mm/hr 0.00 in0.0 mm
01:30 PM 80.5°F26.9°C 67.7°F19.8°C 65% 4.1 mph SSW6.6 kmh SSW 5.4 mph8.7 kmh 29.97 in1014.9 mb 0.00 in0.0 mm 0.00 in/hr0.0 mm/hr 0.00 in0.0 mm
01:45 PM 82.7°F28.2°C 68.8°F20.4°C 63% 4.0 mph SW6.4 kmh SW 6.9 mph11.1 kmh 29.97 in1014.9 mb 0.00 in0.0 mm 0.00 in/hr0.0 mm/hr 0.00 in0.0 mm
02:00 PM 84.1°F28.9°C 68.3°F20.2°C 59% 4.3 mph WSW6.9 kmh WSW 7.6 mph12.2 kmh 29.96 in1014.6 mb 0.00 in0.0 mm 0.00 in/hr0.0 mm/hr 0.00 in0.0 mm
02:15 PM 84.3°F29.1°C 68.0°F20.0°C 58% 3.4 mph S5.5 kmh S 6.0 mph9.7 kmh 29.96 in1014.6 mb 0.00 in0.0 mm 0.00 in/hr0.0 mm/hr 0.00 in0.0 mm
02:30 PM 85.0°F29.4°C 67.6°F19.8°C 56% 2.9 mph SSW4.7 kmh SSW 4.5 mph7.2 kmh 29.95 in1014.2 mb 0.00 in0.0 mm 0.00 in/hr0.0 mm/hr 0.00 in0.0 mm
02:45 PM 86.1°F30.1°C 67.6°F19.8°C 54% 4.7 mph SSW7.6 kmh SSW 6.0 mph9.7 kmh 29.95 in1014.2 mb 0.00 in0.0 mm 0.00 in/hr0.0 mm/hr 0.00 in0.0 mm
03:00 PM 86.8°F30.4°C 66.6°F19.2°C 51% 4.2 mph SW6.8 kmh SW 6.9 mph11.1 kmh 29.94 in1013.9 mb 0.00 in0.0 mm 0.00 in/hr0.0 mm/hr 0.00 in0.0 mm
03:15 PM 87.3°F30.7°C 67.6°F19.8°C 52% 4.1 mph SW6.6 kmh SW 6.0 mph9.7 kmh 29.93 in1013.5 mb 0.00 in0.0 mm 0.00 in/hr0.0 mm/hr 0.00 in0.0 mm
03:30 PM 87.3°F30.7°C 66.5°F19.2°C 50% 4.0 mph WSW6.4 kmh WSW 5.4 mph8.7 kmh 29.93 in1013.5 mb 0.00 in0.0 mm 0.00 in/hr0.0 mm/hr 0.00 in0.0 mm
03:45 PM 87.7°F30.9°C 66.8°F19.3°C 50% 3.9 mph S6.3 kmh S 6.9 mph11.1 kmh 29.93 in1013.5 mb 0.00 in0.0 mm 0.00 in/hr0.0 mm/hr 0.00 in0.0 mm
04:00 PM 86.6°F30.3°C 65.8°F18.8°C 50% 2.5 mph SSE4.0 kmh SSE 5.4 mph8.7 kmh 29.92 in1013.2 mb 0.00 in0.0 mm 0.00 in/hr0.0 mm/hr 0.00 in0.0 mm
04:15 PM 87.2°F30.7°C 66.3°F19.1°C 50% 3.7 mph WSW6.0 kmh WSW 6.0 mph9.7 kmh 29.91 in1012.9 mb 0.00 in0.0 mm 0.00 in/hr0.0 mm/hr 0.00 in0.0 mm
04:30 PM 87.2°F30.7°C 65.7°F18.7°C 49% 5.0 mph SW8.0 kmh SW 7.6 mph12.2 kmh 29.91 in1012.9 mb 0.00 in0.0 mm 0.00 in/hr0.0 mm/hr 0.00 in0.0 mm
04:45 PM 87.0°F30.6°C 65.0°F18.3°C 48% 3.5 mph S5.6 kmh S 6.0 mph9.7 kmh 29.91 in1012.9 mb 0.00 in0.0 mm 0.00 in/hr0.0 mm/hr 0.00 in0.0 mm
05:00 PM 87.2°F30.7°C 65.7°F18.7°C 49% 3.8 mph S6.1 kmh S 5.4 mph8.7 kmh 29.90 in1012.5 mb 0.00 in0.0 mm 0.00 in/hr0.0 mm/hr 0.00 in0.0 mm
05:15 PM 87.2°F30.7°C 66.3°F19.1°C 50% 3.4 mph SW5.5 kmh SW 5.4 mph8.7 kmh 29.90 in1012.5 mb 0.00 in0.0 mm 0.00 in/hr0.0 mm/hr 0.00 in0.0 mm
05:30 PM 87.2°F30.7°C 65.7°F18.7°C 49% 2.2 mph SSE3.5 kmh SSE 3.8 mph6.1 kmh 29.90 in1012.5 mb 0.00 in0.0 mm 0.00 in/hr0.0 mm/hr 0.00 in0.0 mm
05:45 PM 86.8°F30.4°C 66.0°F18.9°C 50% 2.0 mph SSE3.2 kmh SSE 3.8 mph6.1 kmh 29.90 in1012.5 mb 0.00 in0.0 mm 0.00 in/hr0.0 mm/hr 0.00 in0.0 mm
06:00 PM 86.3°F30.2°C 67.2°F19.6°C 53% 2.6 mph S4.2 kmh S 6.0 mph9.7 kmh 29.90 in1012.5 mb 0.00 in0.0 mm 0.00 in/hr0.0 mm/hr 0.00 in0.0 mm
06:15 PM 85.9°F29.9°C 66.8°F19.3°C 53% 2.5 mph SW4.0 kmh SW 3.8 mph6.1 kmh 29.89 in1012.2 mb 0.00 in0.0 mm 0.00 in/hr0.0 mm/hr 0.00 in0.0 mm
06:30 PM 85.0°F29.4°C 66.5°F19.2°C 54% 2.3 mph WSW3.7 kmh WSW 4.5 mph7.2 kmh 29.89 in1012.2 mb 0.00 in0.0 mm 0.00 in/hr0.0 mm/hr 0.00 in0.0 mm
06:45 PM 84.6°F29.2°C 67.8°F19.9°C 57% 0.8 mph S1.3 kmh S 3.1 mph5.0 kmh 29.88 in1011.9 mb 0.00 in0.0 mm 0.00 in/hr0.0 mm/hr 0.00 in0.0 mm
07:00 PM 82.7°F28.2°C 67.4°F19.7°C 60% 0.5 mph WSW0.8 kmh WSW 3.1 mph5.0 kmh 29.88 in1011.9 mb 0.00 in0.0 mm 0.00 in/hr0.0 mm/hr 0.00 in0.0 mm
07:15 PM 80.7°F27.1°C 67.0°F19.4°C 63% 0.1 mph SE0.2 kmh SE 0.7 mph1.1 kmh 29.88 in1011.9 mb 0.00 in0.0 mm 0.00 in/hr0.0 mm/hr 0.00 in0.0 mm
07:30 PM 79.2°F26.2°C 67.4°F19.7°C 67% Calm Calm -- 29.89 in1012.2 mb 0.00 in0.0 mm 0.00 in/hr0.0 mm/hr 0.00 in0.0 mm
07:45 PM 78.0°F25.6°C 67.4°F19.7°C 70% Calm Calm -- 29.89 in1012.2 mb 0.00 in0.0 mm 0.00 in/hr0.0 mm/hr 0.00 in0.0 mm
08:00 PM 77.1°F25.1°C 67.8°F19.9°C 73% 0.2 mph SE0.3 kmh SE 0.7 mph1.1 kmh 29.89 in1012.2 mb 0.00 in0.0 mm 0.00 in/hr0.0 mm/hr 0.00 in0.0 mm
08:15 PM 76.4°F24.7°C 67.5°F19.7°C 74% Calm Calm -- 29.90 in1012.5 mb 0.00 in0.0 mm 0.00 in/hr0.0 mm/hr 0.00 in0.0 mm
08:30 PM 75.5°F24.2°C 67.8°F19.9°C 77% Calm Calm -- 29.90 in1012.5 mb 0.00 in0.0 mm 0.00 in/hr0.0 mm/hr 0.00 in0.0 mm
08:45 PM 74.7°F23.7°C 67.8°F19.9°C 79% 0.1 mph W0.2 kmh W 1.6 mph2.6 kmh 29.91 in1012.9 mb 0.00 in0.0 mm 0.00 in/hr0.0 mm/hr 0.00 in0.0 mm
09:00 PM 74.6°F23.7°C 68.4°F20.2°C 81% 0.6 mph SE1.0 kmh SE 2.2 mph3.5 kmh 29.91 in1012.9 mb 0.00 in0.0 mm 0.00 in/hr0.0 mm/hr 0.00 in0.0 mm
09:15 PM 74.7°F23.7°C 68.6°F20.3°C 81% 1.1 mph SE1.8 kmh SE 1.6 mph2.6 kmh 29.90 in1012.5 mb 0.00 in0.0 mm 0.00 in/hr0.0 mm/hr 0.00 in0.0 mm
09:30 PM 74.9°F23.8°C 68.7°F20.4°C 81% 1.3 mph S2.1 kmh S 1.6 mph2.6 kmh 29.91 in1012.9 mb 0.00 in0.0 mm 0.00 in/hr0.0 mm/hr 0.00 in0.0 mm
09:45 PM 74.6°F23.7°C 68.4°F20.2°C 81% 1.1 mph S1.8 kmh S 3.1 mph5.0 kmh 29.92 in1013.2 mb 0.00 in0.0 mm 0.00 in/hr0.0 mm/hr 0.00 in0.0 mm
10:00 PM 74.4°F23.6°C 68.6°F20.3°C 82% 2.2 mph SE3.5 kmh SE 4.5 mph7.2 kmh 29.91 in1012.9 mb 0.00 in0.0 mm 0.00 in/hr0.0 mm/hr 0.00 in0.0 mm
10:15 PM 74.6°F23.7°C 68.7°F20.4°C 82% 2.3 mph SSE3.7 kmh SSE 3.8 mph6.1 kmh 29.91 in1012.9 mb 0.00 in0.0 mm 0.00 in/hr0.0 mm/hr 0.00 in0.0 mm
10:30 PM 74.6°F23.7°C 68.7°F20.4°C 82% 2.3 mph S3.7 kmh S 3.8 mph6.1 kmh 29.91 in1012.9 mb 0.00 in0.0 mm 0.00 in/hr0.0 mm/hr 0.00 in0.0 mm
10:45 PM 74.7°F23.7°C 68.6°F20.3°C 81% 2.1 mph S3.4 kmh S 3.1 mph5.0 kmh 29.90 in1012.5 mb 0.00 in0.0 mm 0.00 in/hr0.0 mm/hr 0.00 in0.0 mm
11:00 PM 74.9°F23.8°C 68.7°F20.4°C 81% 5.2 mph S8.4 kmh S 7.6 mph12.2 kmh 29.89 in1012.2 mb 0.00 in0.0 mm 0.00 in/hr0.0 mm/hr 0.00 in0.0 mm
11:15 PM 75.3°F24.1°C 68.7°F20.4°C 80% 4.8 mph SSW7.7 kmh SSW 6.0 mph9.7 kmh 29.89 in1012.2 mb 0.00 in0.0 mm 0.00 in/hr0.0 mm/hr 0.00 in0.0 mm
11:30 PM 75.1°F23.9°C 68.2°F20.1°C 79% 2.1 mph SSE3.4 kmh SSE 4.5 mph7.2 kmh 29.89 in1012.2 mb 0.00 in0.0 mm 0.00 in/hr0.0 mm/hr 0.00 in0.0 mm
11:45 PM 74.9°F23.8°C 68.4°F20.2°C 80% 2.3 mph SE3.7 kmh SE 3.1 mph5.0 kmh 29.90 in1012.5 mb 0.00 in0.0 mm 0.00 in/hr0.0 mm/hr 0.00 in0.0 mm